Flight Track Log - Related Links

Times and Time Zones

All times are in EDT time to prevent confusion due to time zone crossing. See the N287KB flight status page for this flight to view local times or setup timezone preferences in your user account.

Time Position Orientation Groundspeed Altitude Reporting Facility
EDT Latitude Longitude Course Direction KTS MPH feet Rate Location/Type
Sun 05:30:54 AM 61.1000 -150.1667 143° Southeast 280 322 9,800  Level Anchorage Center
Sun 05:31:54 AM 61.0333 -150.1000 154° Southeast 320 368 11,900 1,550 Climbing Anchorage Center
Sun 05:32:54 AM 60.9500 -149.9833 146° Southeast 360 414 12,900 1,550 Climbing Anchorage Center
Sun 05:33:00 AM 60.7163 -148.8637 133° Southeast  Level Estimated
Sun 05:33:54 AM 60.8500 -149.8500 147° Southeast 410 472 15,000  Level Anchorage Center
Sun 05:34:00 AM 60.6169 -148.7290 146° Southeast  Level FlightAware Approximate
Sun 05:34:54 AM 60.7667 -149.7000 139° Southeast 430 495 17,400  Level Anchorage Center
Sun 05:35:00 AM 60.5396 -148.5438 134° Southeast  Level Estimated
Sun 05:35:54 AM 60.6667 -149.5500 144° Southeast 440 506 19,800  Level Anchorage Center
Sun 05:36:00 AM 60.4438 -148.3991 143° Southeast  Level FlightAware Approximate
Sun 05:36:54 AM 60.5667 -149.4000 144° Southeast 450 518 21,400  Level Anchorage Center
Sun 05:37:54 AM 60.4667 -149.2333 141° Southeast 460 529 22,900 1,400 Climbing Anchorage Center
Sun 05:38:54 AM 60.3667 -149.0667 140° Southeast 470 541 24,200 1,339 Climbing Anchorage Center
Sun 05:39:55 AM 60.2500 -148.9000 145° Southeast 490 564 25,600 1,300 Climbing Anchorage Center
Sun 05:40:54 AM 60.1833 -148.6333 117° Southeast 500 575 26,800 1,311 Climbing Anchorage Center
Sun 05:41:54 AM 60.1167 -148.4333 124° Southeast 480 552 28,200 1,300 Climbing Anchorage Center
Sun 05:42:54 AM 60.0333 -148.2000 125° Southeast 480 552 29,400 1,240 Climbing Anchorage Center
Sun 05:43:55 AM 59.9667 -147.9833 122° Southeast 480 552 30,700 1,091 Climbing Anchorage Center
Sun 05:44:55 AM 59.8833 -147.7500 125° Southeast 490 564 31,600 950 Climbing Anchorage Center
Sun 05:45:55 AM 59.8167 -147.5167 120° Southeast 480 552 32,600 700 Climbing Anchorage Center
Sun 05:46:55 AM 59.7333 -147.3000 127° Southeast 480 552 33,000 200 Climbing Anchorage Center
Sun 05:47:55 AM 59.6667 -147.0833 121° Southeast 480 552 33,000  Level Anchorage Center
Sun 05:48:55 AM 59.5833 -146.8667 127° Southeast 480 552 33,000  Level Anchorage Center
Sun 05:49:56 AM 59.5167 -146.6333 119° Southeast 480 552 33,000  Level Anchorage Center
Sun 05:50:56 AM 59.4333 -146.4000 125° Southeast 480 552 33,000  Level Anchorage Center
Sun 05:51:56 AM 59.3500 -146.1833 127° Southeast 490 564 33,000  Level Anchorage Center
Sun 05:52:55 AM 59.2833 -146.0167 128° Southeast 480 552 33,000  Level Anchorage Center
Sun 05:53:55 AM 59.1833 -145.7833 130° Southeast 480 552 33,000  Level Anchorage Center
Sun 05:54:56 AM 59.0833 -145.5833 134° Southeast 470 541 33,000  Level Anchorage Center
Sun 05:55:56 AM 59.0000 -145.3833 129° Southeast 470 541 33,000  Level Anchorage Center
Sun 05:56:56 AM 58.9167 -145.1833 129° Southeast 470 541 33,000  Level Anchorage Center
Sun 05:57:56 AM 58.8333 -144.9833 129° Southeast 470 541 33,000  Level Anchorage Center
Sun 05:58:56 AM 58.7500 -144.8000 131° Southeast 470 541 33,000  Level Anchorage Center
Sun 05:59:56 AM 58.6667 -144.6000 129° Southeast 460 529 33,000  Level Anchorage Center
Sun 06:01:00 AM 58.5830 -144.4145 131° Southeast  Level FlightAware Approximate
Sun 06:01:56 AM 58.5000 -144.2333 131° Southeast 460 529 33,000  Level Anchorage Center
Sun 06:02:57 AM 58.4167 -144.0500 131° Southeast 460 529 33,000  Level Anchorage Center
Sun 06:03:57 AM 58.3333 -143.8500 128° Southeast 460 529 33,000  Level Anchorage Center
Sun 06:04:57 AM 58.2500 -143.6833 133° Southeast 460 529 33,000  Level Anchorage Center
Sun 06:05:57 AM 58.1500 -143.5000 136° Southeast 460 529 33,000  Level Anchorage Center
Sun 06:06:57 AM 58.0667 -143.3167 131° Southeast 450 518 33,000  Level Anchorage Center
Sun 06:07:57 AM 57.9833 -143.1333 131° Southeast 450 518 33,000  Level Anchorage Center
Sun 06:08:57 AM 57.9000 -142.9667 133° Southeast 450 518 33,000  Level Anchorage Center
Sun 06:09:57 AM 57.8167 -142.7833 130° Southeast 450 518 33,000  Level Anchorage Center
Sun 06:10:58 AM 57.7333 -142.6167 133° Southeast 440 506 33,000  Level Anchorage Center
Sun 06:11:58 AM 57.6500 -142.4500 133° Southeast 450 518 33,000  Level Anchorage Center
Sun 06:12:58 AM 57.5667 -142.2833 133° Southeast 440 506 33,000  Level Anchorage Center
Sun 06:13:58 AM 57.4833 -142.1167 133° Southeast 430 495 33,000  Level Anchorage Center
Sun 06:14:58 AM 57.4000 -141.9500 133° Southeast 430 495 33,000  Level Anchorage Center
Sun 06:15:58 AM 57.3167 -141.7833 133° Southeast 430 495 33,000  Level Anchorage Center
Sun 06:16:58 AM 57.2500 -141.6333 129° Southeast 420 483 33,000  Level Anchorage Center
Sun 06:17:58 AM 57.1667 -141.4667 133° Southeast 430 495 33,000  Level Anchorage Center
Sun 06:18:58 AM 57.0833 -141.3167 136° Southeast 420 483 33,000  Level Anchorage Center
Sun 06:19:58 AM 57.0000 -141.1500 133° Southeast 420 483 33,000  Level Anchorage Center
Sun 06:20:59 AM 56.9167 -141.0000 135° Southeast 430 495 33,000  Level Anchorage Center
Sun 06:21:59 AM 56.8333 -140.8333 132° Southeast 420 483 33,000  Level Anchorage Center
Sun 06:22:59 AM 56.7500 -140.6833 135° Southeast 420 483 33,000  Level Anchorage Center
Sun 06:23:59 AM 56.6667 -140.5333 135° Southeast 420 483 33,000  Level Anchorage Center
Sun 06:24:59 AM 56.6000 -140.3833 129° Southeast 410 472 33,000  Level Anchorage Center
Sun 06:25:59 AM 56.5167 -140.2333 135° Southeast 410 472 33,000  Level Anchorage Center
Sun 06:26:59 AM 56.4333 -140.0833 135° Southeast 420 483 33,000  Level Anchorage Center
Sun 06:27:59 AM 56.3500 -139.9333 135° Southeast 410 472 33,000  Level Anchorage Center
Sun 06:28:59 AM 56.2667 -139.7833 135° Southeast 420 483 33,000  Level Anchorage Center
Sun 06:29:59 AM 56.1833 -139.6333 135° Southeast 420 483 33,000  Level Anchorage Center
Sun 06:30:59 AM 56.1000 -139.5000 138° Southeast 410 472 33,000  Level Anchorage Center
Sun 06:31:59 AM 56.0167 -139.3500 135° Southeast 420 483 33,000  Level Anchorage Center
Sun 06:32:59 AM 55.9500 -139.2000 128° Southeast 400 460 33,000  Level Anchorage Center
Sun 06:34:00 AM 55.8667 -139.0667 138° Southeast 410 472 33,000  Level Anchorage Center
Sun 06:35:00 AM 55.7833 -138.9167 135° Southeast 410 472 33,000  Level Anchorage Center
Sun 06:36:00 AM 55.7000 -138.7833 138° Southeast 400 460 33,000  Level Anchorage Center
Sun 06:37:00 AM 55.6167 -138.6333 134° Southeast 410 472 33,000  Level Anchorage Center
Sun 06:38:00 AM 55.5333 -138.5000 138° Southeast 400 460 33,000  Level Anchorage Center
Sun 06:39:00 AM 55.4500 -138.3667 138° Southeast 400 460 33,000  Level Anchorage Center
Sun 06:40:00 AM 55.3667 -138.2167 134° Southeast 410 472 33,000  Level Anchorage Center
Sun 06:41:00 AM 55.2833 -138.0833 138° Southeast 410 472 33,000  Level Anchorage Center
Sun 06:42:01 AM 55.2167 -137.9500 131° Southeast 400 460 33,000  Level Anchorage Center
Sun 06:43:01 AM 55.1333 -137.8167 138° Southeast 400 460 33,000  Level Anchorage Center
Sun 06:44:01 AM 55.0500 -137.6667 134° Southeast 410 472 33,000  Level Anchorage Center
Sun 06:45:01 AM 54.9667 -137.5333 137° Southeast 400 460 33,000  Level Anchorage Center
Sun 06:46:01 AM 54.8833 -137.4000 137° Southeast 410 472 33,000  Level Anchorage Center
Sun 06:47:01 AM 54.8000 -137.2667 137° Southeast 410 472 33,000  Level Anchorage Center
Sun 06:48:01 AM 54.7167 -137.1333 137° Southeast 400 460 33,000  Level Anchorage Center
Sun 06:49:01 AM 54.6333 -137.0000 137° Southeast 410 472 33,000  Level Anchorage Center
Sun 06:50:01 AM 54.5500 -136.8667 137° Southeast 410 472 33,000  Level Anchorage Center
Sun 06:51:01 AM 54.4667 -136.7333 137° Southeast 410 472 33,000  Level Anchorage Center
Sun 06:52:02 AM 54.3833 -136.6000 137° Southeast 410 472 33,000  Level Anchorage Center
Sun 06:53:02 AM 54.3000 -136.4667 137° Southeast 410 472 33,000  Level Anchorage Center
Sun 06:54:02 AM 54.2167 -136.3333 137° Southeast 410 472 33,000  Level Anchorage Center
Sun 06:55:02 AM 54.1333 -136.2000 137° Southeast 410 472 33,000  Level Anchorage Center
Sun 06:56:02 AM 54.0500 -136.0667 137° Southeast 420 483 33,000  Level Anchorage Center
Sun 06:58:25 AM 53.8000 -135.8500 153° Southeast 420 483 33,000  Level Vancouver Center
Sun 06:59:25 AM 53.7167 -135.7333 140° Southeast 420 483 33,000  Level Vancouver Center
Sun 07:00:25 AM 53.6167 -135.6167 145° Southeast 420 483 33,000  Level Vancouver Center
Sun 07:01:25 AM 53.5333 -135.5167 144° Southeast 420 483 33,000  Level Vancouver Center
Sun 07:02:25 AM 53.4333 -135.4000 145° Southeast 420 483 33,000  Level Vancouver Center
Sun 07:03:25 AM 53.3333 -135.2833 145° Southeast 420 483 33,000  Level Vancouver Center
Sun 07:04:25 AM 53.2500 -135.1833 144° Southeast 420 483 33,000  Level Vancouver Center
Sun 07:05:25 AM 53.1333 -135.0667 149° Southeast 420 483 33,000  Level Vancouver Center
Sun 07:06:25 AM 53.0500 -134.9667 144° Southeast 420 483 33,000  Level Vancouver Center
Sun 07:07:25 AM 52.9500 -134.8500 145° Southeast 420 483 33,000  Level Vancouver Center
Sun 07:08:25 AM 52.8667 -134.7500 144° Southeast 420 483 33,000  Level Vancouver Center
Sun 07:09:25 AM 52.7667 -134.6167 141° Southeast 430 495 33,000  Level Vancouver Center
Sun 07:10:25 AM 52.6667 -134.5000 145° Southeast 430 495 33,000  Level Vancouver Center
Sun 07:11:25 AM 52.5833 -134.4000 144° Southeast 430 495 33,000 50 Level Vancouver Center
Sun 07:12:25 AM 52.4667 -134.2833 149° Southeast 430 495 33,100  Climbing Vancouver Center
Sun 07:13:25 AM 52.3833 -134.1833 144° Southeast 430 495 33,000 -50 Descending Vancouver Center
Sun 07:14:25 AM 52.2667 -134.0833 152° Southeast 430 495 33,000  Level Vancouver Center
Sun 07:15:25 AM 52.1833 -133.9833 144° Southeast 430 495 33,000  Level Vancouver Center
Sun 07:16:25 AM 52.0667 -133.8667 148° Southeast 430 495 33,000  Level Vancouver Center
Sun 07:17:25 AM 51.9833 -133.7667 144° Southeast 430 495 33,000  Level Vancouver Center
Sun 07:18:25 AM 51.8667 -133.6333 145° Southeast 430 495 33,000 50 Level Vancouver Center
Sun 07:19:25 AM 51.7833 -133.5333 143° Southeast 440 506 33,100  Climbing Vancouver Center
Sun 07:20:25 AM 51.6667 -133.4333 152° Southeast 430 495 33,000 -50 Descending Vancouver Center
Sun 07:21:25 AM 51.5667 -133.3167 144° Southeast 440 506 33,000  Level Vancouver Center
Sun 07:22:25 AM 51.4667 -133.2167 148° Southeast 440 506 33,000  Level Vancouver Center
Sun 07:23:25 AM 51.3667 -133.1000 144° Southeast 440 506 33,000  Level Vancouver Center
Sun 07:24:25 AM 51.2667 -133.0000 148° Southeast 440 506 33,000  Level Vancouver Center
Sun 07:25:25 AM 51.1500 -132.9000 152° Southeast 440 506 33,000  Level Vancouver Center
Sun 07:26:25 AM 51.0500 -132.7833 144° Southeast 440 506 33,000  Level Vancouver Center
Sun 07:27:25 AM 50.9500 -132.7000 152° Southeast 440 506 33,000 50 Level Vancouver Center
Sun 07:28:25 AM 50.8500 -132.5833 144° Southeast 440 506 33,100  Climbing Vancouver Center
Sun 07:29:25 AM 50.7333 -132.4667 148° Southeast 450 518 33,000 -50 Descending Vancouver Center
Sun 07:30:25 AM 50.6500 -132.3667 143° Southeast 450 518 33,000 50 Level Vancouver Center
Sun 07:31:25 AM 50.5333 -132.2667 151° Southeast 450 518 33,100 50 Climbing Vancouver Center
Sun 07:32:25 AM 50.4167 -132.1667 151° Southeast 440 506 33,100 -50 Level Vancouver Center
Sun 07:33:25 AM 50.3333 -132.0500 138° Southeast 440 506 33,000 -50 Descending Vancouver Center
Sun 07:34:25 AM 50.2167 -131.9500 151° Southeast 440 506 33,000  Level Vancouver Center
Sun 07:35:25 AM 50.1333 -131.8500 142° Southeast 440 506 33,000  Level Vancouver Center
Sun 07:36:25 AM 50.0167 -131.7667 155° Southeast 440 506 33,000 -50 Level Vancouver Center
Sun 07:37:25 AM 49.9000 -131.6667 151° Southeast 440 506 32,900 -50 Descending Vancouver Center
Sun 07:38:25 AM 49.8000 -131.5667 147° Southeast 440 506 32,900 50 Level Vancouver Center
Sun 07:39:25 AM 49.7000 -131.4667 147° Southeast 440 506 33,000 50 Climbing Vancouver Center
Sun 07:40:25 AM 49.5833 -131.3833 155° Southeast 450 518 33,000 50 Level Vancouver Center
Sun 07:41:25 AM 49.4833 -131.2833 147° Southeast 450 518 33,100  Climbing Vancouver Center
Sun 07:42:25 AM 49.3667 -131.1833 151° Southeast 440 506 33,000 -50 Descending Vancouver Center
Sun 07:43:25 AM 49.2667 -131.1000 151° Southeast 450 518 33,000  Level Vancouver Center
Sun 07:44:25 AM 49.1667 -131.0333 156° South 440 506 33,000  Level Vancouver Center
Sun 07:45:25 AM 49.0500 -130.9333 151° Southeast 450 518 33,000 50 Level Vancouver Center
Sun 07:46:25 AM 48.9333 -130.8500 155° Southeast 450 518 33,100  Climbing Vancouver Center
Sun 07:47:25 AM 48.8333 -130.7333 142° Southeast 440 506 33,000 -100 Descending Vancouver Center
Sun 07:48:25 AM 48.7333 -130.6667 156° South 440 506 32,900  Descending Vancouver Center
Sun 07:49:25 AM 48.6167 -130.5667 150° Southeast 440 506 33,000 50 Climbing Vancouver Center
Sun 07:50:25 AM 48.5167 -130.4833 151° Southeast 440 506 33,000  Level Vancouver Center
Sun 07:51:25 AM 48.4000 -130.3833 150° Southeast 440 506 33,000  Level Vancouver Center
Sun 07:52:25 AM 48.3000 -130.3000 151° Southeast 440 506 33,000 50 Level Vancouver Center
Sun 07:53:25 AM 48.1833 -130.2167 155° Southeast 440 506 33,100 50 Climbing Vancouver Center
Sun 07:54:25 AM 48.0833 -130.1167 146° Southeast 440 506 33,100 -50 Level Vancouver Center
Sun 07:55:25 AM 47.9833 -130.0333 151° Southeast 440 506 33,000 -50 Descending Vancouver Center
Sun 07:56:25 AM 47.8667 -129.9500 154° Southeast 440 506 33,000  Level Vancouver Center
Sun 07:57:25 AM 47.7500 -129.8667 154° Southeast 440 506 33,000  Level Vancouver Center
Sun 07:58:25 AM 47.6500 -129.7667 146° Southeast 440 506 33,000  Level Vancouver Center
Sun 07:59:25 AM 47.5500 -129.6833 151° Southeast 440 506 33,000  Level Vancouver Center
Sun 08:00:25 AM 47.4333 -129.6000 154° Southeast 440 506 33,000  Level Vancouver Center
Sun 08:01:25 AM 47.3500 -129.5167 146° Southeast 440 506 33,000  Level Vancouver Center
Sun 08:02:25 AM 47.2167 -129.4333 157° South 450 518 33,000  Level Vancouver Center
Sun 08:03:25 AM 47.1167 -129.3333 146° Southeast 440 506 33,000  Level Vancouver Center
Sun 08:04:25 AM 47.0000 -129.2500 154° Southeast 440 506 33,000  Level Vancouver Center
Sun 08:05:25 AM 46.9000 -129.1667 150° Southeast 420 483 33,000  Level Vancouver Center
Sun 08:06:25 AM 46.8000 -129.0833 150° Southeast 440 506 33,000  Level Vancouver Center
Sun 08:07:09 AM 46.7167 -129.0333 158° South 440 506 33,000  Level Vancouver Center
Sun 08:08:09 AM 46.6167 -128.9667 155° Southeast 450 518 33,000  Level Vancouver Center
Sun 08:09:09 AM 46.4833 -128.8667 153° Southeast 450 518 33,000  Level Vancouver Center
Sun 08:10:09 AM 46.4000 -128.8000 151° Southeast 450 518 33,000 -50 Level Vancouver Center
Sun 08:11:09 AM 46.2667 -128.7000 153° Southeast 450 518 32,900 -50 Descending Vancouver Center
Sun 08:12:09 AM 46.1667 -128.6167 150° Southeast 450 518 32,900  Level Vancouver Center
Sun 08:13:09 AM 46.0500 -128.5333 154° Southeast 450 518 32,900 50 Level Vancouver Center
Sun 08:14:09 AM 45.9333 -128.4500 154° Southeast 450 518 33,000 50 Climbing Vancouver Center
Sun 08:15:09 AM 45.8333 -128.3667 150° Southeast 450 518 33,000  Level Vancouver Center
Sun 08:16:09 AM 45.7167 -128.2833 153° Southeast 450 518 33,000  Level Vancouver Center
Sun 08:17:09 AM 45.6000 -128.2000 153° Southeast 460 529 33,000  Level Vancouver Center
Sun 08:18:09 AM 45.4833 -128.1333 158° South 460 529 33,000  Level Vancouver Center
Sun 08:19:09 AM 45.3667 -128.0500 153° Southeast 450 518 33,000  Level Vancouver Center
Sun 08:20:09 AM 45.2667 -127.9667 150° Southeast 460 529 33,000  Level Vancouver Center
Sun 08:21:09 AM 45.1500 -127.8667 149° Southeast 460 529 33,000  Level Vancouver Center
Sun 08:22:09 AM 45.0333 -127.7833 153° Southeast 460 529 33,000 -50 Level Vancouver Center
Sun 08:23:09 AM 44.9167 -127.7000 153° Southeast 460 529 32,900 -50 Descending Vancouver Center
Sun 08:24:09 AM 44.8000 -127.6333 158° South 460 529 32,900 50 Level Vancouver Center
Sun 08:25:09 AM 44.7167 -127.5667 150° Southeast 460 529 33,000  Climbing Vancouver Center
Sun 08:27:00 AM 44.5246 -127.4274 153° Southeast  Level FlightAware Approximate
Sun 08:34:00 AM 43.7966 -126.9086 153° Southeast  Level FlightAware Approximate
Sun 08:35:00 AM 43.6923 -126.8355 153° Southeast  Level FlightAware Approximate
Sun 08:36:00 AM 43.5881 -126.7627 153° Southeast  Level FlightAware Approximate
Sun 08:36:50 AM 43.4214 -126.6447 153° Southeast 420 483 32,900  Level Seattle Center
Sun 08:37:00 AM 43.4838 -126.6901 153° Southeast  Level FlightAware Approximate
Sun 08:37:50 AM 43.3231 -126.5522 146° Southeast 428 493 33,000  Level Seattle Center
Sun 08:38:00 AM 43.3795 -126.6192 153° Southeast  Level FlightAware Approximate
Sun 08:38:51 AM 43.2317 -126.4475 140° Southeast 432 497 33,100  Level Seattle Center
Sun 08:39:00 AM 43.2751 -126.5471 153° Southeast  Level FlightAware Approximate
Sun 08:39:51 AM 43.1408 -126.3467 141° Southeast 429 494 32,900  Level Seattle Center
Sun 08:40:00 AM 43.1708 -126.4755 153° Southeast  Level FlightAware Approximate
Sun 08:40:51 AM 43.0489 -126.2447 141° Southeast 428 493 33,000  Level Seattle Center
Sun 08:41:00 AM 43.0666 -126.4042 153° Southeast  Level FlightAware Approximate
Sun 08:41:51 AM 42.9583 -126.1436 141° Southeast 426 490 33,000  Level Seattle Center
Sun 08:42:00 AM 42.9622 -126.3330 153° Southeast  Level FlightAware Approximate
Sun 08:42:51 AM 42.8678 -126.0425 141° Southeast 424 488 32,900  Level Seattle Center
Sun 08:43:52 AM 42.7867 -125.9489 140° Southeast 424 488 32,900  Level Seattle Center
Sun 08:44:52 AM 42.6936 -125.8486 142° Southeast 425 489 32,900 50 Level Seattle Center
Sun 08:45:52 AM 42.6011 -125.7450 140° Southeast 430 495 33,000 50 Climbing Seattle Center
Sun 08:46:52 AM 42.5067 -125.6442 142° Southeast 431 496 33,000  Level Seattle Center
Sun 08:47:53 AM 42.4150 -125.5442 141° Southeast 427 491 33,000 -50 Level Seattle Center
Sun 08:48:53 AM 42.3233 -125.4433 141° Southeast 426 490 32,900 -50 Descending Seattle Center
Sun 08:49:53 AM 42.2311 -125.3444 142° Southeast 423 487 32,900 50 Level Seattle Center
Sun 08:50:53 AM 42.1375 -125.2439 141° Southeast 428 493 33,000 50 Climbing Seattle Center
Sun 08:51:53 AM 42.0447 -125.1422 141° Southeast 431 496 33,000  Level Seattle Center
Sun 08:52:54 AM 41.9519 -125.0453 142° Southeast 426 490 33,000  Level Seattle Center
Sun 08:53:54 AM 41.8594 -124.9469 142° Southeast 426 490 33,000 -50 Level Seattle Center
Sun 08:54:54 AM 41.7681 -124.8503 142° Southeast 421 484 32,900 -47 Descending Seattle Center
Sun 08:56:02 AM 41.6583 -124.7361 142° Southeast 417 480 32,900  Level Oakland Center
Sun 08:56:55 AM 41.5850 -124.6572 141° Southeast 419 482 32,900 53 Level Seattle Center
Sun 08:57:55 AM 41.4747 -124.5397 141° Southeast 422 486 33,000 50 Climbing Seattle Center
Sun 08:58:55 AM 41.3811 -124.4444 143° Southeast 423 487 33,000  Level Seattle Center
Sun 08:59:56 AM 41.2889 -124.3497 142° Southeast 420 483 33,000  Level Seattle Center
Sun 09:00:56 AM 41.1967 -124.2533 142° Southeast 421 484 33,000 -50 Level Seattle Center
Sun 09:01:56 AM 41.1028 -124.1572 142° Southeast 425 489 32,900  Descending Seattle Center
Sun 09:02:56 AM 41.0111 -124.0617 142° Southeast 421 484 33,000 50 Climbing Seattle Center
Sun 09:03:57 AM 40.9175 -123.9675 143° Southeast 421 484 33,000  Level Seattle Center
Sun 09:04:57 AM 40.8253 -123.8719 142° Southeast 420 483 33,000 -50 Level Seattle Center
Sun 09:05:57 AM 40.7322 -123.7775 142° Southeast 420 483 32,900  Descending Seattle Center
Sun 09:06:57 AM 40.6381 -123.6842 143° Southeast 420 483 33,000 50 Climbing Seattle Center
Sun 09:07:58 AM 40.5442 -123.5892 142° Southeast 423 487 33,000  Level Seattle Center
Sun 09:08:58 AM 40.4692 -123.5144 143° Southeast 422 486 33,000  Level Seattle Center
Sun 09:09:58 AM 40.3772 -123.4211 142° Southeast 419 482 33,000 -50 Level Seattle Center
Sun 09:10:59 AM 40.2858 -123.3272 142° Southeast 416 479 32,900 -50 Descending Seattle Center
Sun 09:11:59 AM 40.1919 -123.2358 143° Southeast 417 480 32,900  Level Seattle Center
Sun 09:12:59 AM 40.0811 -123.1250 143° Southeast 418 481 32,900  Level Seattle Center
Sun 09:14:00 AM 39.9886 -123.0336 143° Southeast 417 480 32,900  Level Seattle Center
Sun 09:15:00 AM 39.8953 -122.9422 143° Southeast 419 482 32,900 50 Level Seattle Center
Sun 09:16:00 AM 39.8014 -122.8508 143° Southeast 420 483 33,000 47 Climbing Seattle Center
Sun 09:17:08 AM 39.7067 -122.7594 143° Southeast 422 486 33,000  Level Oakland Center
Sun 09:18:08 AM 39.6144 -122.6692 143° Southeast 418 481 33,000  Level Oakland Center
Sun 09:19:09 AM 39.5222 -122.5789 143° Southeast 418 481 33,000 -50 Level Oakland Center
Sun 09:20:09 AM 39.4272 -122.4875 143° Southeast 415 478 32,900 -850 Descending Oakland Center
Sun 09:21:09 AM 39.3339 -122.3967 143° Southeast 419 482 31,300 -1,587 Descending Oakland Center
Sun 09:22:10 AM 39.2419 -122.3097 144° Southeast 414 476 29,700 -1,636 Descending Oakland Center
Sun 09:23:10 AM 39.1536 -122.2233 143° Southeast 402 463 28,000 -1,700 Descending Oakland Center
Sun 09:24:10 AM 39.0661 -122.1397 143° Southeast 393 452 26,300 -1,736 Descending Oakland Center
Sun 09:25:11 AM 38.9758 -122.0531 143° Southeast 404 465 24,500 -1,884 Descending Oakland Center
Sun 09:26:11 AM 38.8881 -121.9706 144° Southeast 395 455 22,500 -1,950 Descending Oakland Center
Sun 09:27:11 AM 38.8006 -121.8889 144° Southeast 390 449 20,600 -2,132 Descending Oakland Center
Sun 09:28:12 AM 38.6939 -121.8125 151° Southeast 369 425 18,200 -2,231 Descending Oakland Center
Sun 09:29:12 AM 38.6117 -121.7497 149° Southeast 349 402 16,100 -2,033 Descending Oakland Center
Sun 09:30:13 AM 38.5289 -121.6881 150° Southeast 347 399 14,100 -1,983 Descending Oakland Center
Sun 09:31:13 AM 38.4481 -121.6278 150° Southeast 341 392 12,100 -1,355 Descending Oakland Center
Sun 09:31:46 AM 38.4000 -121.6000 156° South 338 389 12,000 -774 Descending Northern Cal TRACON
Sun 09:32:46 AM 38.3333 -121.5333 142° Southeast 301 346 10,900 -1,263 Descending Northern Cal TRACON
Sun 09:33:40 AM 38.2667 -121.4833 150° Southeast 284 327 9,600 -1,400 Descending Northern Cal TRACON
Sun 09:34:46 AM 38.1833 -121.4333 155° Southeast 271 312 8,100 -850 Descending Northern Cal TRACON
Sun 09:35:40 AM 38.1333 -121.3833 142° Southeast 272 313 7,900 -850 Descending Northern Cal TRACON
Sun 09:36:46 AM 38.0833 -121.3167 134° Southeast 274 315 6,400 -1,455 Descending Northern Cal TRACON
Sun 09:37:52 AM 38.0333 -121.2333 127° Southeast 266 306 4,700 -1,545 Descending Northern Cal TRACON
Sun 09:40:00 AM 37.8942 -121.2383 162° South  Level Estimated
Sun 09:47:00 AM 37.8942 -121.2383 162° South  Level Estimated

Login

Don't have an account? Register now (free) for customized features, flight alerts, and more!